createdAt,value
2019-05-25T00:02:14.160Z,101771.42
2019-05-25T00:04:43.141Z,101772.61
2019-05-25T00:07:11.944Z,101779.56
2019-05-25T00:09:40.524Z,101779.44
2019-05-25T00:12:09.235Z,101775.66
2019-05-25T00:14:38.194Z,101775.33
2019-05-25T00:17:07.056Z,101778.08
2019-05-25T00:19:35.920Z,101779.09
2019-05-25T00:22:04.547Z,101782.11
2019-05-25T00:24:33.281Z,101779.30
2019-05-25T00:27:01.957Z,101780.56
2019-05-25T00:29:30.610Z,101782.58
2019-05-25T00:31:59.212Z,101782.77
2019-05-25T00:34:27.755Z,101782.03
2019-05-25T00:36:56.331Z,101784.45
2019-05-25T00:39:25.390Z,101784.42
2019-05-25T00:41:54.002Z,101782.64
2019-05-25T00:44:22.682Z,101781.87
2019-05-25T00:46:51.288Z,101785.06
2019-05-25T00:49:19.869Z,101787.31
2019-05-25T00:51:48.458Z,101782.64
2019-05-25T00:54:27.565Z,101777.52
2019-05-25T00:56:47.726Z,101783.41
2019-05-25T00:59:16.274Z,101786.81
2019-05-25T01:01:44.849Z,101789.10
2019-05-25T01:04:13.472Z,101788.69
2019-05-25T01:06:42.083Z,101785.57
2019-05-25T01:09:10.652Z,101789.59
2019-05-25T01:11:39.176Z,101791.77
2019-05-25T01:14:07.684Z,101790.09
2019-05-25T01:16:36.311Z,101789.83
2019-05-25T01:19:04.853Z,101794.66
2019-05-25T01:21:33.399Z,101794.69
2019-05-25T01:24:01.893Z,101797.25
2019-05-25T01:26:30.432Z,101792.28
2019-05-25T01:28:59.123Z,101794.00
2019-05-25T01:31:27.802Z,101793.91
2019-05-25T01:33:56.364Z,101797.91
2019-05-25T01:36:24.930Z,101801.92
2019-05-25T01:38:53.443Z,101797.50
2019-05-25T01:41:21.936Z,101799.16
2019-05-25T01:43:50.710Z,101796.84
2019-05-25T01:46:19.219Z,101796.78
2019-05-25T01:48:47.720Z,101788.47
2019-05-25T01:51:16.196Z,101791.12
2019-05-25T01:53:44.722Z,101793.91
2019-05-25T01:56:13.273Z,101794.64
2019-05-25T01:58:41.768Z,101796.37
2019-05-25T02:01:10.243Z,101794.56
2019-05-25T02:03:38.805Z,101790.38
2019-05-25T02:06:07.362Z,101788.41
2019-05-25T02:08:35.856Z,101790.72
2019-05-25T02:11:04.370Z,101792.89
2019-05-25T02:13:32.942Z,101790.75
2019-05-25T02:16:01.457Z,101788.88
2019-05-25T02:18:29.981Z,101786.41
2019-05-25T02:20:58.481Z,101786.78
2019-05-25T02:23:27.031Z,101783.24
2019-05-25T02:25:55.538Z,101780.55
2019-05-25T02:28:24.115Z,101773.34
2019-05-25T02:30:52.641Z,101777.53
2019-05-25T02:33:21.112Z,101787.88
2019-05-25T02:35:49.595Z,101784.30
2019-05-25T02:38:18.107Z,101790.95
2019-05-25T02:40:46.598Z,101793.95
2019-05-25T02:43:15.140Z,101799.69
2019-05-25T02:45:43.699Z,101799.09
2019-05-25T02:48:12.264Z,101800.30
2019-05-25T02:50:40.870Z,101793.20
2019-05-25T02:53:09.347Z,101799.16
2019-05-25T02:55:37.819Z,101794.91
2019-05-25T02:58:06.321Z,101791.34
2019-05-25T03:00:35.084Z,101795.06
2019-05-25T03:03:03.741Z,101792.52
2019-05-25T03:05:32.260Z,101793.86
2019-05-25T03:08:00.808Z,101794.35
2019-05-25T03:10:29.394Z,101787.55
2019-05-25T03:12:58.935Z,101796.06
2019-05-25T03:15:27.419Z,101791.96
2019-05-25T03:17:55.952Z,101785.14
2019-05-25T03:20:24.433Z,101785.46
2019-05-25T03:22:53.013Z,101784.66
2019-05-25T03:25:21.616Z,101778.12
2019-05-25T03:27:50.101Z,101776.66
2019-05-25T03:30:21.864Z,101774.41
2019-05-25T03:32:50.414Z,101772.61
2019-05-25T03:35:18.904Z,101772.84
2019-05-25T03:37:47.495Z,101772.61
2019-05-25T03:40:15.992Z,101781.70
2019-05-25T03:42:44.645Z,101775.97
2019-05-25T03:45:14.749Z,101780.00
2019-05-25T03:47:43.229Z,101777.82
2019-05-25T03:50:11.760Z,101780.47
2019-05-25T03:52:40.309Z,101783.05
2019-05-25T03:55:08.826Z,101794.32
2019-05-25T03:57:37.338Z,101793.39
2019-05-25T04:00:06.806Z,101793.72
2019-05-25T04:02:35.320Z,101791.95
2019-05-25T04:05:07.261Z,101785.32
2019-05-25T04:07:35.848Z,101789.63
2019-05-25T04:10:05.668Z,101793.25
2019-05-25T04:12:34.169Z,101795.28
2019-05-25T04:15:02.732Z,101793.92
2019-05-25T04:17:31.236Z,101793.10
2019-05-25T04:19:59.745Z,101790.65
2019-05-25T04:22:28.232Z,101785.49
2019-05-25T04:24:56.876Z,101798.29
2019-05-25T04:27:25.464Z,101798.42
2019-05-25T04:29:53.931Z,101800.14
2019-05-25T04:32:22.404Z,101798.10
2019-05-25T04:34:50.985Z,101801.33
2019-05-25T04:37:19.535Z,101811.27
2019-05-25T04:39:48.048Z,101811.68
2019-05-25T04:42:16.615Z,101813.19
2019-05-25T04:44:45.193Z,101816.94
2019-05-25T04:47:26.167Z,101817.17
2019-05-25T04:49:43.939Z,101815.46
2019-05-25T04:52:12.504Z,101822.59
2019-05-25T04:54:41.053Z,101831.47
2019-05-25T04:57:09.605Z,101831.92
2019-05-25T04:59:38.158Z,101830.17
2019-05-25T05:02:06.649Z,101826.02
2019-05-25T05:04:35.218Z,101834.32
2019-05-25T05:07:03.789Z,101834.55
2019-05-25T05:09:32.328Z,101832.37
2019-05-25T05:12:00.864Z,101836.50
2019-05-25T05:14:29.426Z,101836.94
2019-05-25T05:16:57.997Z,101841.69
2019-05-25T05:19:26.584Z,101847.58
2019-05-25T05:21:55.117Z,101847.42
2019-05-25T05:24:23.600Z,101849.19
2019-05-25T05:26:55.999Z,101852.55
2019-05-25T05:29:22.331Z,101845.31
2019-05-25T05:31:50.817Z,101849.14
2019-05-25T05:34:19.330Z,101852.28
2019-05-25T05:36:48.082Z,101851.16
2019-05-25T05:39:16.767Z,101853.16
2019-05-25T05:41:45.308Z,101856.50
2019-05-25T05:44:13.781Z,101850.28
2019-05-25T05:46:42.307Z,101852.58
2019-05-25T05:49:10.871Z,101853.39
2019-05-25T05:51:39.366Z,101849.56
2019-05-25T05:54:07.954Z,101848.69
2019-05-25T05:56:36.444Z,101850.05
2019-05-25T05:59:04.969Z,101846.95
2019-05-25T06:01:33.536Z,101851.72
2019-05-25T06:04:02.222Z,101855.94
2019-05-25T06:06:30.903Z,101859.58
2019-05-25T06:08:59.463Z,101858.62
2019-05-25T06:11:28.035Z,101860.02
2019-05-25T06:13:56.640Z,101855.45
2019-05-25T06:16:25.134Z,101861.56
2019-05-25T06:18:53.636Z,101863.52
2019-05-25T06:21:22.134Z,101865.45
2019-05-25T06:23:50.619Z,101862.39
2019-05-25T06:26:19.156Z,101864.94
2019-05-25T06:28:47.700Z,101869.48
2019-05-25T06:31:16.186Z,101870.50
2019-05-25T06:33:44.768Z,101871.55
2019-05-25T06:36:13.324Z,101880.47
2019-05-25T06:38:41.884Z,101876.78
2019-05-25T06:41:10.399Z,101878.13
2019-05-25T06:43:38.884Z,101877.59
2019-05-25T06:46:07.510Z,101879.28
2019-05-25T06:48:36.150Z,101881.88
2019-05-25T06:51:05.006Z,101876.38
2019-05-25T06:53:33.493Z,101883.72
2019-05-25T06:56:02.034Z,101880.67
2019-05-25T06:58:30.748Z,101876.63
2019-05-25T07:00:59.356Z,101878.84
2019-05-25T07:03:27.871Z,101882.20
2019-05-25T07:05:56.431Z,101876.19
2019-05-25T07:08:25.031Z,101877.01
2019-05-25T07:10:53.516Z,101871.49
2019-05-25T07:13:22.023Z,101877.63
2019-05-25T07:15:50.643Z,101877.50
2019-05-25T07:18:19.189Z,101876.93
2019-05-25T07:20:47.769Z,101872.16
2019-05-25T07:23:16.303Z,101876.95
2019-05-25T07:25:44.898Z,101881.92
2019-05-25T07:28:13.404Z,101884.61
2019-05-25T07:30:41.890Z,101885.05
2019-05-25T07:33:10.394Z,101879.66
2019-05-25T07:35:38.936Z,101879.08
2019-05-25T07:38:07.534Z,101879.27
2019-05-25T07:40:36.031Z,101885.28
2019-05-25T07:43:04.974Z,101887.45
2019-05-25T07:45:33.537Z,101889.59
2019-05-25T07:48:02.101Z,101886.73
2019-05-25T07:50:30.665Z,101887.59
2019-05-25T07:52:59.381Z,101890.15
2019-05-25T07:55:27.925Z,101890.64
2019-05-25T07:57:56.484Z,101892.69
2019-05-25T08:00:25.049Z,101893.20
2019-05-25T08:02:53.770Z,101902.03
2019-05-25T08:05:22.311Z,101907.21
2019-05-25T08:07:50.810Z,101907.05
2019-05-25T08:10:19.445Z,101910.97
2019-05-25T08:12:47.966Z,101905.97
2019-05-25T08:15:16.477Z,101911.37
2019-05-25T08:17:44.960Z,101913.88
2019-05-25T08:20:13.778Z,101916.22
2019-05-25T08:22:42.418Z,101918.53
2019-05-25T08:25:10.961Z,101918.27
2019-05-25T08:27:39.429Z,101920.00
2019-05-25T08:30:08.081Z,101919.99
2019-05-25T08:32:36.709Z,101917.45
2019-05-25T08:35:06.615Z,101915.80
2019-05-25T08:37:35.177Z,101915.69
2019-05-25T08:40:05.404Z,101920.31
2019-05-25T08:42:34.010Z,101919.25
2019-05-25T08:45:02.496Z,101922.66
2019-05-25T08:47:31.087Z,101925.00
2019-05-25T08:49:59.619Z,101923.61
2019-05-25T08:52:28.093Z,101924.62
2019-05-25T08:54:56.869Z,101927.02
2019-05-25T08:57:25.489Z,101921.20
2019-05-25T08:59:54.034Z,101927.34
2019-05-25T09:02:22.518Z,101931.84
2019-05-25T09:04:51.044Z,101932.11
2019-05-25T09:07:19.516Z,101930.74
2019-05-25T09:09:48.022Z,101929.45
2019-05-25T09:12:16.525Z,101928.89
2019-05-25T09:14:45.047Z,101928.05
2019-05-25T09:17:13.631Z,101931.14
2019-05-25T09:19:42.164Z,101935.23
2019-05-25T09:22:10.744Z,101938.22
2019-05-25T09:24:39.255Z,101931.58
2019-05-25T09:27:07.804Z,101936.47
2019-05-25T09:29:36.331Z,101935.72
2019-05-25T09:32:07.011Z,101935.06
2019-05-25T09:34:35.166Z,101931.14
2019-05-25T09:37:03.647Z,101933.69
2019-05-25T09:39:32.129Z,101931.16
2019-05-25T09:42:00.713Z,101928.30
2019-05-25T09:44:29.260Z,101932.05
2019-05-25T09:46:57.769Z,101932.23
2019-05-25T09:49:26.278Z,101935.66
2019-05-25T09:51:54.824Z,101931.37
2019-05-25T09:54:23.432Z,101929.58
2019-05-25T09:56:52.020Z,101920.74
2019-05-25T09:59:20.758Z,101932.64
2019-05-25T10:01:49.469Z,101921.77
2019-05-25T10:04:18.033Z,101924.54
2019-05-25T10:06:46.804Z,101921.19
2019-05-25T10:09:15.475Z,101922.59
2019-05-25T10:11:44.106Z,101919.41
2019-05-25T10:14:12.710Z,101914.02
2019-05-25T10:16:41.290Z,101918.11
2019-05-25T10:19:09.789Z,101917.00
2019-05-25T10:21:38.409Z,101919.63
2019-05-25T10:24:07.116Z,101914.27
2019-05-25T10:26:35.642Z,101918.01
2019-05-25T10:29:04.120Z,101909.87
2019-05-25T10:31:32.673Z,101909.13
2019-05-25T10:34:01.230Z,101912.58
2019-05-25T10:36:29.933Z,101907.05
2019-05-25T10:38:58.657Z,101895.70
2019-05-25T10:41:27.265Z,101887.44
2019-05-25T10:43:55.796Z,101898.13
2019-05-25T10:46:24.464Z,101891.67
2019-05-25T10:48:53.064Z,101888.22
2019-05-25T10:51:21.535Z,101886.23
2019-05-25T10:53:50.081Z,101884.87
2019-05-25T10:56:18.600Z,101883.16
2019-05-25T10:58:47.209Z,101880.78
2019-05-25T11:01:15.856Z,101878.67
2019-05-25T11:03:44.487Z,101880.80
2019-05-25T11:06:12.967Z,101874.50
2019-05-25T11:08:41.898Z,101879.55
2019-05-25T11:11:10.460Z,101875.66
2019-05-25T11:13:38.949Z,101873.98
2019-05-25T11:16:07.636Z,101868.30
2019-05-25T11:18:36.229Z,101878.86
2019-05-25T11:21:04.802Z,101872.59
2019-05-25T11:23:33.354Z,101871.71
2019-05-25T11:26:01.920Z,101876.72
2019-05-25T11:28:30.582Z,101879.94
2019-05-25T11:30:59.119Z,101874.64
2019-05-25T11:33:27.887Z,101874.95
2019-05-25T11:35:56.573Z,101873.59
2019-05-25T11:38:25.168Z,101878.86
2019-05-25T11:40:53.764Z,101874.91
2019-05-25T11:43:22.339Z,101877.55
2019-05-25T11:45:50.824Z,101871.52
2019-05-25T11:48:19.345Z,101875.47
2019-05-25T11:50:47.885Z,101869.67
2019-05-25T11:53:16.561Z,101872.92
2019-05-25T11:55:45.107Z,101870.58
2019-05-25T11:58:13.670Z,101871.27
2019-05-25T12:00:42.227Z,101865.82
2019-05-25T12:03:10.789Z,101861.45
2019-05-25T12:05:39.318Z,101855.75
2019-05-25T12:08:07.945Z,101857.85
2019-05-25T12:10:36.445Z,101862.05
2019-05-25T12:13:05.033Z,101855.85
2019-05-25T12:15:33.605Z,101857.30
2019-05-25T12:18:02.240Z,101861.80
2019-05-25T12:20:30.865Z,101853.75
2019-05-25T12:22:59.523Z,101849.41
2019-05-25T12:25:28.149Z,101850.59
2019-05-25T12:27:56.656Z,101849.88
2019-05-25T12:30:39.751Z,101848.34
2019-05-25T12:32:56.244Z,101850.66
2019-05-25T12:35:24.843Z,101844.03
2019-05-25T12:37:53.470Z,101841.98
2019-05-25T12:40:22.003Z,101844.38
2019-05-25T12:42:50.515Z,101841.00
2019-05-25T12:45:19.148Z,101834.70
2019-05-25T12:47:47.641Z,101832.09
2019-05-25T12:50:16.115Z,101830.14
2019-05-25T12:52:44.629Z,101831.77
2019-05-25T12:55:13.201Z,101844.58
2019-05-25T12:57:41.749Z,101838.52
2019-05-25T13:00:16.043Z,101836.20
2019-05-25T13:02:41.051Z,101834.81
2019-05-25T13:05:09.643Z,101834.84
2019-05-25T13:07:38.195Z,101836.55
2019-05-25T13:10:07.389Z,101834.58
2019-05-25T13:12:36.000Z,101836.60
2019-05-25T13:15:08.516Z,101840.20
2019-05-25T13:17:37.022Z,101839.23
2019-05-25T13:20:06.330Z,101836.98
2019-05-25T13:22:34.874Z,101836.23
2019-05-25T13:25:04.675Z,101839.34
2019-05-25T13:27:33.285Z,101833.28
2019-05-25T13:30:03.251Z,101835.86
2019-05-25T13:32:32.155Z,101835.72
2019-05-25T13:35:00.783Z,101836.48
2019-05-25T13:37:29.329Z,101831.86
2019-05-25T13:39:57.947Z,101830.63
2019-05-25T13:42:26.575Z,101827.93
2019-05-25T13:44:55.158Z,101826.45
2019-05-25T13:47:23.695Z,101833.64
2019-05-25T13:49:52.192Z,101830.44
2019-05-25T13:52:20.785Z,101827.67
2019-05-25T13:54:49.464Z,101821.86
2019-05-25T13:57:18.070Z,101826.22
2019-05-25T13:59:46.629Z,101826.59
2019-05-25T14:02:15.223Z,101820.52
2019-05-25T14:04:43.776Z,101815.16
2019-05-25T14:07:12.369Z,101811.61
2019-05-25T14:09:41.002Z,101810.86
2019-05-25T14:12:09.522Z,101813.08
2019-05-25T14:14:38.011Z,101811.27
2019-05-25T14:17:06.556Z,101809.31
2019-05-25T14:19:35.151Z,101808.22
2019-05-25T14:22:03.726Z,101798.27
2019-05-25T14:24:32.306Z,101806.08
2019-05-25T14:27:00.812Z,101806.12
2019-05-25T14:29:29.502Z,101799.88
2019-05-25T14:31:58.099Z,101802.41
2019-05-25T14:34:26.680Z,101806.11
2019-05-25T14:36:55.284Z,101799.80
2019-05-25T14:39:23.808Z,101795.75
2019-05-25T14:41:52.363Z,101789.80
2019-05-25T14:44:20.939Z,101794.71
2019-05-25T14:46:49.477Z,101802.05
2019-05-25T14:49:18.058Z,101798.50
2019-05-25T14:51:48.270Z,101794.92
2019-05-25T14:54:16.873Z,101792.56
2019-05-25T14:56:45.453Z,101792.25
2019-05-25T14:59:13.964Z,101795.20
2019-05-25T15:01:42.608Z,101791.11
2019-05-25T15:04:11.188Z,101792.74
2019-05-25T15:06:39.874Z,101792.61
2019-05-25T15:09:08.510Z,101790.63
2019-05-25T15:11:37.047Z,101791.09
2019-05-25T15:14:05.558Z,101790.99
2019-05-25T15:16:34.149Z,101793.10
2019-05-25T15:19:02.764Z,101791.24
2019-05-25T15:21:31.306Z,101793.05
2019-05-25T15:23:59.954Z,101785.38
2019-05-25T15:26:28.572Z,101781.56
2019-05-25T15:28:57.129Z,101776.37
2019-05-25T15:31:25.707Z,101771.15
2019-05-25T15:33:54.290Z,101771.66
2019-05-25T15:36:22.809Z,101772.89
2019-05-25T15:38:51.349Z,101766.70
2019-05-25T15:41:19.933Z,101761.61
2019-05-25T15:43:48.454Z,101752.16
2019-05-25T15:46:17.003Z,101753.59
2019-05-25T15:48:45.556Z,101760.53
2019-05-25T15:51:14.128Z,101747.29
2019-05-25T15:53:42.653Z,101747.02
2019-05-25T15:56:11.182Z,101747.75
2019-05-25T15:58:39.769Z,101744.22
2019-05-25T16:01:08.436Z,101747.18
2019-05-25T16:03:36.979Z,101746.14
2019-05-25T16:06:05.517Z,101747.24
2019-05-25T16:08:34.065Z,101742.20
2019-05-25T16:11:02.644Z,101735.66
2019-05-25T16:13:31.215Z,101733.86
2019-05-25T16:15:59.923Z,101734.63
2019-05-25T16:18:28.531Z,101733.40
2019-05-25T16:20:57.099Z,101739.98
2019-05-25T16:23:25.700Z,101733.69
2019-05-25T16:25:54.184Z,101734.78
2019-05-25T16:28:22.841Z,101735.07
2019-05-25T16:30:51.465Z,101734.08
2019-05-25T16:33:20.000Z,101738.89
2019-05-25T16:35:48.605Z,101739.14
2019-05-25T16:38:17.246Z,101745.08
2019-05-25T16:40:45.764Z,101738.09
2019-05-25T16:43:14.388Z,101744.07
2019-05-25T16:45:42.961Z,101749.14
2019-05-25T16:48:11.814Z,101746.85
2019-05-25T16:50:40.449Z,101746.97
2019-05-25T16:53:08.976Z,101749.24
2019-05-25T16:55:37.538Z,101745.02
2019-05-25T16:58:06.118Z,101744.21
2019-05-25T17:00:34.604Z,101743.80
2019-05-25T17:03:03.249Z,101745.67
2019-05-25T17:05:31.838Z,101750.81
2019-05-25T17:08:00.350Z,101754.42
2019-05-25T17:10:28.989Z,101743.37
2019-05-25T17:12:57.580Z,101754.42
2019-05-25T17:15:26.152Z,101755.30
2019-05-25T17:17:54.723Z,101755.83
2019-05-25T17:20:23.248Z,101752.72
2019-05-25T17:22:51.809Z,101747.73
2019-05-25T17:25:20.369Z,101751.16
2019-05-25T17:27:48.900Z,101752.36
2019-05-25T17:30:19.047Z,101745.84
2019-05-25T17:32:47.663Z,101748.33
2019-05-25T17:35:16.150Z,101743.70
2019-05-25T17:37:44.848Z,101746.84
2019-05-25T17:40:13.378Z,101754.53
2019-05-25T17:42:41.895Z,101746.28
2019-05-25T17:45:10.706Z,101746.00
2019-05-25T17:47:39.265Z,101751.31
2019-05-25T17:50:08.069Z,101749.59
2019-05-25T17:52:36.655Z,101751.59
2019-05-25T17:55:08.019Z,101759.83
2019-05-25T17:57:36.526Z,101750.31
2019-05-25T18:00:06.796Z,101762.62
2019-05-25T18:02:35.434Z,101758.53
2019-05-25T18:05:06.085Z,101756.36
2019-05-25T18:07:34.635Z,101753.62
2019-05-25T18:10:04.614Z,101753.22
2019-05-25T18:12:33.155Z,101751.34
2019-05-25T18:15:01.701Z,101750.20
2019-05-25T18:17:30.270Z,101753.84
2019-05-25T18:19:58.836Z,101757.95
2019-05-25T18:22:27.429Z,101760.84
2019-05-25T18:24:55.955Z,101757.30
2019-05-25T18:27:25.359Z,101759.36
2019-05-25T18:29:53.876Z,101760.09
2019-05-25T18:32:22.548Z,101760.17
2019-05-25T18:34:51.129Z,101763.68
2019-05-25T18:37:19.745Z,101764.88
2019-05-25T18:39:48.270Z,101766.38
2019-05-25T18:42:16.786Z,101761.41
2019-05-25T18:44:45.291Z,101758.34
2019-05-25T18:47:13.809Z,101759.95
2019-05-25T18:49:42.478Z,101768.23
2019-05-25T18:52:11.064Z,101770.55
2019-05-25T18:54:39.932Z,101761.68
2019-05-25T18:57:09.560Z,101765.56
2019-05-25T18:59:38.401Z,101761.94
2019-05-25T19:02:07.019Z,101757.81
2019-05-25T19:04:44.770Z,101759.36
2019-05-25T19:07:05.742Z,101758.17
2019-05-25T19:09:34.353Z,101761.36
2019-05-25T19:12:03.168Z,101757.32
2019-05-25T19:14:34.194Z,101756.10
2019-05-25T19:17:02.805Z,101759.61
2019-05-25T19:19:31.380Z,101762.05
2019-05-25T19:22:00.068Z,101761.15
2019-05-25T19:24:28.641Z,101761.23
2019-05-25T19:26:59.034Z,101764.33
2019-05-25T19:29:27.628Z,101766.67
2019-05-25T19:31:56.190Z,101772.47
2019-05-25T19:34:26.346Z,101777.86
2019-05-25T19:37:03.324Z,101775.90
2019-05-25T19:39:28.103Z,101773.67
2019-05-25T19:41:56.698Z,101783.45
2019-05-25T19:44:25.330Z,101784.89
2019-05-25T19:46:53.909Z,101776.44
2019-05-25T19:49:22.568Z,101784.33
2019-05-25T19:51:51.168Z,101785.67
2019-05-25T19:54:19.834Z,101786.98
2019-05-25T19:56:48.434Z,101788.73
2019-05-25T19:59:17.016Z,101791.36
2019-05-25T20:01:46.066Z,101795.24
2019-05-25T20:04:14.720Z,101791.31
2019-05-25T20:06:43.587Z,101790.17
2019-05-25T20:09:12.180Z,101792.47
2019-05-25T20:11:40.785Z,101791.20
2019-05-25T20:14:09.543Z,101790.99
2019-05-25T20:16:38.148Z,101792.50
2019-05-25T20:19:06.738Z,101796.39
2019-05-25T20:21:40.092Z,101797.61
2019-05-25T20:24:08.856Z,101797.81
2019-05-25T20:26:39.390Z,101796.63
2019-05-25T20:29:12.545Z,101794.46
2019-05-25T20:31:47.444Z,101793.02
2019-05-25T20:34:26.959Z,101792.66
2019-05-25T20:37:16.028Z,101790.44
2019-05-25T20:39:44.860Z,101799.91
2019-05-25T20:42:15.135Z,101797.13
2019-05-25T20:44:43.992Z,101800.19
2019-05-25T20:47:12.547Z,101805.04
2019-05-25T20:49:41.039Z,101808.06
2019-05-25T20:52:09.542Z,101808.80
2019-05-25T20:54:38.556Z,101805.84
2019-05-25T20:57:07.094Z,101813.25
2019-05-25T20:59:53.816Z,101813.10
2019-05-25T21:02:13.731Z,101810.25
2019-05-25T21:04:42.322Z,101808.41
2019-05-25T21:07:10.853Z,101815.45
2019-05-25T21:09:39.485Z,101810.05
2019-05-25T21:12:08.109Z,101814.43
2019-05-25T21:14:36.743Z,101816.09
2019-05-25T21:17:05.327Z,101816.04
2019-05-25T21:19:34.255Z,101819.30
2019-05-25T21:22:02.830Z,101820.48
2019-05-25T21:24:31.383Z,101822.70
2019-05-25T21:26:59.945Z,101822.05
2019-05-25T21:29:28.443Z,101821.08
2019-05-25T21:31:57.032Z,101815.95
2019-05-25T21:34:25.599Z,101814.86
2019-05-25T21:36:54.230Z,101812.98
2019-05-25T21:39:22.769Z,101809.64
2019-05-25T21:41:51.669Z,101807.43
2019-05-25T21:44:24.072Z,101817.66
2019-05-25T21:46:57.412Z,101817.97
2019-05-25T21:49:25.945Z,101819.00
2019-05-25T21:51:54.532Z,101814.66
2019-05-25T21:54:23.096Z,101816.75
2019-05-25T21:56:51.646Z,101811.59
2019-05-25T21:59:20.262Z,101808.84
2019-05-25T22:01:48.933Z,101808.03
2019-05-25T22:04:17.501Z,101806.87
2019-05-25T22:06:46.123Z,101804.13
2019-05-25T22:09:14.684Z,101801.12
2019-05-25T22:11:43.339Z,101801.96
2019-05-25T22:14:11.822Z,101797.01
2019-05-25T22:16:40.328Z,101794.98
2019-05-25T22:19:08.847Z,101795.35
2019-05-25T22:21:37.439Z,101793.25
2019-05-25T22:24:06.029Z,101795.30
2019-05-25T22:26:34.636Z,101793.23
2019-05-25T22:29:03.167Z,101793.22
2019-05-25T22:31:31.776Z,101790.31
2019-05-25T22:34:00.314Z,101778.66
2019-05-25T22:36:39.914Z,101786.95
2019-05-25T22:38:59.037Z,101788.53
2019-05-25T22:41:27.647Z,101786.61
2019-05-25T22:43:56.201Z,101787.85
2019-05-25T22:46:24.714Z,101785.00
2019-05-25T22:48:53.289Z,101777.29
2019-05-25T22:51:21.821Z,101780.86
2019-05-25T22:53:50.434Z,101776.98
2019-05-25T22:56:19.051Z,101781.70
2019-05-25T22:58:47.620Z,101779.77
2019-05-25T23:01:16.132Z,101775.66
2019-05-25T23:03:44.641Z,101772.77
2019-05-25T23:06:13.146Z,101776.31
2019-05-25T23:08:41.668Z,101770.98
2019-05-25T23:11:10.224Z,101767.55
2019-05-25T23:13:38.736Z,101762.47
2019-05-25T23:16:08.879Z,101769.23
2019-05-25T23:18:37.405Z,101767.09
2019-05-25T23:21:05.920Z,101766.89
2019-05-25T23:23:34.451Z,101763.77
2019-05-25T23:26:03.002Z,101761.89
2019-05-25T23:28:31.552Z,101763.31
2019-05-25T23:31:00.237Z,101762.97
2019-05-25T23:33:28.878Z,101765.96
2019-05-25T23:35:57.461Z,101765.39
2019-05-25T23:38:26.021Z,101768.06
2019-05-25T23:40:54.533Z,101770.97
2019-05-25T23:43:23.126Z,101764.64
2019-05-25T23:45:51.667Z,101756.52
2019-05-25T23:48:20.186Z,101759.66
2019-05-25T23:50:49.169Z,101755.98
2019-05-25T23:53:17.760Z,101755.11
2019-05-25T23:55:46.377Z,101756.03
2019-05-25T23:58:14.948Z,101749.90
